createdAt,value
2018-11-02T00:01:33.042Z,35.18
2018-11-02T00:04:02.834Z,35.85
2018-11-02T00:06:33.366Z,36.07
2018-11-02T00:09:18.920Z,36.29
2018-11-02T00:11:48.667Z,36.88
2018-11-02T00:14:18.543Z,35.61
2018-11-02T00:16:48.310Z,36.70
2018-11-02T00:19:22.298Z,36.11
2018-11-02T00:21:51.972Z,36.74
2018-11-02T00:24:21.698Z,36.82
2018-11-02T00:26:51.486Z,35.84
2018-11-02T00:29:21.387Z,36.64
2018-11-02T00:31:51.257Z,37.45
2018-11-02T00:34:20.979Z,36.96
2018-11-02T00:36:50.691Z,36.82
2018-11-02T00:39:20.438Z,36.26
2018-11-02T00:41:50.569Z,37.12
2018-11-02T00:44:20.655Z,36.44
2018-11-02T00:46:50.417Z,37.33
2018-11-02T00:49:20.082Z,37.49
2018-11-02T00:51:49.895Z,37.39
2018-11-02T00:54:19.641Z,37.81
2018-11-02T00:56:49.474Z,37.57
2018-11-02T00:59:19.318Z,38.23
2018-11-02T01:01:49.138Z,37.88
2018-11-02T01:04:18.943Z,37.20
2018-11-02T01:06:48.787Z,37.36
2018-11-02T01:09:19.030Z,37.52
2018-11-02T01:11:48.782Z,36.96
2018-11-02T01:14:18.683Z,38.00
2018-11-02T01:16:48.564Z,37.81
2018-11-02T01:19:18.295Z,36.92
2018-11-02T01:21:48.269Z,37.93
2018-11-02T01:24:18.089Z,38.24
2018-11-02T01:26:47.651Z,37.86
2018-11-02T01:29:17.664Z,38.45
2018-11-02T01:31:47.380Z,38.50
2018-11-02T01:34:17.292Z,37.99
2018-11-02T01:36:46.963Z,38.72
2018-11-02T01:39:17.006Z,38.56
2018-11-02T01:41:46.682Z,37.76
2018-11-02T01:44:16.918Z,37.74
2018-11-02T01:46:46.459Z,38.85
2018-11-02T01:49:16.247Z,37.70
2018-11-02T01:51:45.969Z,38.41
2018-11-02T01:54:16.198Z,39.13
2018-11-02T01:56:45.952Z,38.20
2018-11-02T01:59:15.742Z,38.41
2018-11-02T02:01:45.476Z,39.13
2018-11-02T02:04:15.477Z,39.78
2018-11-02T02:06:45.460Z,38.11
2018-11-02T02:09:15.312Z,38.55
2018-11-02T02:11:45.287Z,38.51
2018-11-02T02:14:15.093Z,39.60
2018-11-02T02:16:44.858Z,39.08
2018-11-02T02:19:14.628Z,38.31
2018-11-02T02:21:44.666Z,38.57
2018-11-02T02:24:14.557Z,39.39
2018-11-02T02:26:44.287Z,40.08
2018-11-02T02:29:14.671Z,38.74
2018-11-02T02:31:44.450Z,39.12
2018-11-02T02:34:14.950Z,38.87
2018-11-02T02:36:44.680Z,39.82
2018-11-02T02:39:14.480Z,39.23
2018-11-02T02:41:44.384Z,39.80
2018-11-02T02:44:14.275Z,39.81
2018-11-02T02:46:44.062Z,39.75
2018-11-02T02:49:13.822Z,39.94
2018-11-02T02:51:43.700Z,39.55
2018-11-02T02:54:13.612Z,40.43
2018-11-02T02:56:43.130Z,40.10
2018-11-02T02:59:12.927Z,39.50
2018-11-02T03:01:42.654Z,40.39
2018-11-02T03:04:12.430Z,40.82
2018-11-02T03:06:42.219Z,40.31
2018-11-02T03:09:11.994Z,41.31
2018-11-02T03:11:41.780Z,40.53
2018-11-02T03:14:11.543Z,40.62
2018-11-02T03:16:41.614Z,39.32
2018-11-02T03:19:11.415Z,40.82
2018-11-02T03:21:41.202Z,39.52
2018-11-02T03:24:10.964Z,40.42
2018-11-02T03:26:40.759Z,40.88
2018-11-02T03:29:10.856Z,40.88
2018-11-02T03:31:40.671Z,40.40
2018-11-02T03:34:10.406Z,41.27
2018-11-02T03:36:40.147Z,41.47
2018-11-02T03:39:11.403Z,40.42
2018-11-02T03:41:41.440Z,40.84
2018-11-02T03:44:11.598Z,40.69
2018-11-02T03:46:41.744Z,42.11
2018-11-02T03:49:11.507Z,41.52
2018-11-02T03:51:41.659Z,42.19
2018-11-02T03:54:11.483Z,43.05
2018-11-02T03:56:41.397Z,41.53
2018-11-02T03:59:11.948Z,40.56
2018-11-02T04:01:41.735Z,42.21
2018-11-02T04:04:11.487Z,40.96
2018-11-02T04:06:41.357Z,41.54
2018-11-02T04:09:11.205Z,42.17
2018-11-02T04:11:41.041Z,41.67
2018-11-02T04:14:10.853Z,41.82
2018-11-02T04:16:40.840Z,42.36
2018-11-02T04:19:10.674Z,40.78
2018-11-02T04:21:44.659Z,41.67
2018-11-02T04:24:14.530Z,42.26
2018-11-02T04:26:44.307Z,41.37
2018-11-02T04:29:15.095Z,40.90
2018-11-02T04:31:45.391Z,41.11
2018-11-02T04:34:15.894Z,41.39
2018-11-02T04:36:45.698Z,41.74
2018-11-02T04:39:17.183Z,41.44
2018-11-02T04:41:46.834Z,41.48
2018-11-02T04:44:16.635Z,42.25
2018-11-02T04:46:46.291Z,42.29
2018-11-02T04:49:16.502Z,42.00
2018-11-02T04:51:46.155Z,41.46
2018-11-02T04:54:15.934Z,41.64
2018-11-02T04:56:45.595Z,42.51
2018-11-02T04:59:15.427Z,42.42
2018-11-02T05:01:45.227Z,42.12
2018-11-02T05:04:15.050Z,41.89
2018-11-02T05:06:44.836Z,41.81
2018-11-02T05:09:14.970Z,41.79
2018-11-02T05:11:44.753Z,41.83
2018-11-02T05:14:14.540Z,41.89
2018-11-02T05:16:44.724Z,43.32
2018-11-02T05:19:14.730Z,42.69
2018-11-02T05:21:44.570Z,43.13
2018-11-02T05:24:14.659Z,42.39
2018-11-02T05:26:44.958Z,42.90
2018-11-02T05:29:14.761Z,42.88
2018-11-02T05:31:44.539Z,42.05
2018-11-02T05:34:14.279Z,41.93
2018-11-02T05:36:44.043Z,41.94
2018-11-02T05:39:14.027Z,41.97
2018-11-02T05:41:43.795Z,42.24
2018-11-02T05:44:13.443Z,43.45
2018-11-02T05:46:43.519Z,43.16
2018-11-02T05:49:13.750Z,42.10
2018-11-02T05:51:43.553Z,42.39
2018-11-02T05:54:13.817Z,42.91
2018-11-02T05:56:43.723Z,41.94
2018-11-02T05:59:13.505Z,43.03
2018-11-02T06:01:43.358Z,42.97
2018-11-02T06:04:13.103Z,43.60
2018-11-02T06:06:42.878Z,43.28
2018-11-02T06:09:12.914Z,42.30
2018-11-02T06:11:42.686Z,41.67
2018-11-02T06:14:12.367Z,41.39
2018-11-02T06:16:42.488Z,41.20
2018-11-02T06:19:12.196Z,41.00
2018-11-02T06:21:42.010Z,41.70
2018-11-02T06:24:11.803Z,41.92
2018-11-02T06:26:41.818Z,41.48
2018-11-02T06:29:11.540Z,42.08
2018-11-02T06:31:41.315Z,40.95
2018-11-02T06:34:10.982Z,41.52
2018-11-02T06:36:40.764Z,42.17
2018-11-02T06:39:11.187Z,42.19
2018-11-02T06:41:40.892Z,41.59
2018-11-02T06:44:10.645Z,42.65
2018-11-02T06:46:40.643Z,42.20
2018-11-02T06:49:10.440Z,42.92
2018-11-02T06:51:40.166Z,42.37
2018-11-02T06:54:09.919Z,41.70
2018-11-02T06:56:39.624Z,42.03
2018-11-02T06:59:09.431Z,42.64
2018-11-02T07:01:39.263Z,43.12
2018-11-02T07:04:09.027Z,43.44
2018-11-02T07:06:38.800Z,42.28
2018-11-02T07:09:10.511Z,43.56
2018-11-02T07:11:50.130Z,42.94
2018-11-02T07:14:19.732Z,43.78
2018-11-02T07:16:49.778Z,43.09
2018-11-02T07:19:19.558Z,43.57
2018-11-02T07:21:49.299Z,43.97
2018-11-02T07:24:18.999Z,44.04
2018-11-02T07:26:48.834Z,42.72
2018-11-02T07:29:18.615Z,43.94
2018-11-02T07:31:48.538Z,44.36
2018-11-02T07:34:18.470Z,43.86
2018-11-02T07:36:48.482Z,43.47
2018-11-02T07:39:18.182Z,44.51
2018-11-02T07:41:50.322Z,43.56
2018-11-02T07:44:20.036Z,44.21
2018-11-02T07:46:56.399Z,43.95
2018-11-02T07:49:26.579Z,44.17
2018-11-02T07:51:56.593Z,45.06
2018-11-02T07:54:26.407Z,44.48
2018-11-02T07:56:56.486Z,44.20
2018-11-02T07:59:26.295Z,44.68
2018-11-02T08:01:56.221Z,44.16
2018-11-02T08:04:25.857Z,43.98
2018-11-02T08:06:55.583Z,45.06
2018-11-02T08:09:26.452Z,45.35
2018-11-02T08:11:56.271Z,45.19
2018-11-02T08:14:26.071Z,44.35
2018-11-02T08:16:55.706Z,44.07
2018-11-02T08:19:25.574Z,44.92
2018-11-02T08:21:55.270Z,45.65
2018-11-02T08:24:24.985Z,45.05
2018-11-02T08:26:55.038Z,44.37
2018-11-02T08:29:24.972Z,44.73
2018-11-02T08:31:54.793Z,45.28
2018-11-02T08:34:24.544Z,44.55
2018-11-02T08:36:54.287Z,44.94
2018-11-02T08:39:24.051Z,45.72
2018-11-02T08:41:53.838Z,45.74
2018-11-02T08:44:23.574Z,45.12
2018-11-02T08:46:53.268Z,44.84
2018-11-02T08:49:23.041Z,45.93
2018-11-02T08:51:52.709Z,45.71
2018-11-02T08:54:22.495Z,44.88
2018-11-02T08:56:52.163Z,45.54
2018-11-02T08:59:22.115Z,45.12
2018-11-02T09:01:52.739Z,46.27
2018-11-02T09:04:22.560Z,46.39
2018-11-02T09:06:52.311Z,45.64
2018-11-02T09:09:22.380Z,45.14
2018-11-02T09:11:52.556Z,45.82
2018-11-02T09:14:24.955Z,45.68
2018-11-02T09:16:54.828Z,46.17
2018-11-02T09:19:26.068Z,45.64
2018-11-02T09:21:55.767Z,46.35
2018-11-02T09:24:26.083Z,46.48
2018-11-02T09:26:56.075Z,46.08
2018-11-02T09:29:25.871Z,45.82
2018-11-02T09:31:55.658Z,46.49
2018-11-02T09:34:25.439Z,45.64
2018-11-02T09:36:55.158Z,46.25
2018-11-02T09:39:25.106Z,46.84
2018-11-02T09:41:55.270Z,46.55
2018-11-02T09:44:25.036Z,45.82
2018-11-02T09:46:54.810Z,46.60
2018-11-02T09:49:24.583Z,45.76
2018-11-02T09:51:54.478Z,45.69
2018-11-02T09:54:24.347Z,46.20
2018-11-02T09:56:54.054Z,46.78
2018-11-02T09:59:23.842Z,46.97
2018-11-02T10:01:53.485Z,46.98
2018-11-02T10:04:23.939Z,47.21
2018-11-02T10:06:53.891Z,46.39
2018-11-02T10:09:23.841Z,46.18
2018-11-02T10:11:53.441Z,45.90
2018-11-02T10:14:23.188Z,46.47
2018-11-02T10:16:52.927Z,45.73
2018-11-02T10:19:22.671Z,45.92
2018-11-02T10:21:52.270Z,46.33
2018-11-02T10:24:22.290Z,46.56
2018-11-02T10:26:52.178Z,46.36
2018-11-02T10:29:21.811Z,46.92
2018-11-02T10:31:51.552Z,46.58
2018-11-02T10:34:21.467Z,46.01
2018-11-02T10:36:52.094Z,45.39
2018-11-02T10:39:22.104Z,45.60
2018-11-02T10:41:54.551Z,45.57
2018-11-02T10:44:28.735Z,45.43
2018-11-02T10:46:58.173Z,46.06
2018-11-02T10:49:27.766Z,46.18
2018-11-02T10:51:57.571Z,45.78
2018-11-02T10:54:27.396Z,45.82
2018-11-02T10:56:57.392Z,46.51
2018-11-02T10:59:27.097Z,46.02
2018-11-02T11:02:01.743Z,46.47
2018-11-02T11:04:31.496Z,46.72
2018-11-02T11:07:01.294Z,45.75
2018-11-02T11:09:31.117Z,46.24
2018-11-02T11:12:01.014Z,45.69
2018-11-02T11:14:31.263Z,45.66
2018-11-02T11:17:01.102Z,46.05
2018-11-02T11:19:31.492Z,46.05
2018-11-02T11:22:01.440Z,46.02
2018-11-02T11:24:31.219Z,46.33
2018-11-02T11:27:01.285Z,47.05
2018-11-02T11:29:31.083Z,46.89
2018-11-02T11:32:00.891Z,46.41
2018-11-02T11:34:30.715Z,46.19
2018-11-02T11:37:00.594Z,46.44
2018-11-02T11:39:30.554Z,46.21
2018-11-02T11:42:00.329Z,47.58
2018-11-02T11:44:30.101Z,46.08
2018-11-02T11:46:59.964Z,46.70
2018-11-02T11:49:29.828Z,47.10
2018-11-02T11:51:59.790Z,47.17
2018-11-02T11:54:29.637Z,45.99
2018-11-02T11:56:59.623Z,46.28
2018-11-02T11:59:30.723Z,46.12
2018-11-02T12:02:00.499Z,47.25
2018-11-02T12:04:30.405Z,46.65
2018-11-02T12:07:02.654Z,47.39
2018-11-02T12:09:32.699Z,47.19
2018-11-02T12:12:02.460Z,46.31
2018-11-02T12:14:32.186Z,47.39
2018-11-02T12:17:01.831Z,47.13
2018-11-02T12:19:31.635Z,47.04
2018-11-02T12:22:01.716Z,46.92
2018-11-02T12:24:31.442Z,46.65
2018-11-02T12:27:01.175Z,47.16
2018-11-02T12:29:31.318Z,47.22
2018-11-02T12:32:01.120Z,46.63
2018-11-02T12:34:31.266Z,47.08
2018-11-02T12:37:01.383Z,47.86
2018-11-02T12:39:31.437Z,46.84
2018-11-02T12:42:01.498Z,47.37
2018-11-02T12:44:31.409Z,46.70
2018-11-02T12:47:01.634Z,47.07
2018-11-02T12:49:31.889Z,47.11
2018-11-02T12:52:01.388Z,47.35
2018-11-02T12:54:31.243Z,47.73
2018-11-02T12:57:01.228Z,48.02
2018-11-02T12:59:31.059Z,47.14
2018-11-02T13:02:00.844Z,47.51
2018-11-02T13:04:31.102Z,47.02
2018-11-02T13:07:00.862Z,47.44
2018-11-02T13:09:30.679Z,47.97
2018-11-02T13:12:01.044Z,47.81
2018-11-02T13:14:30.846Z,47.83
2018-11-02T13:17:00.626Z,46.39
2018-11-02T13:19:30.405Z,46.81
2018-11-02T13:22:00.291Z,47.66
2018-11-02T13:24:30.127Z,47.74
2018-11-02T13:26:59.895Z,47.57
2018-11-02T13:29:29.676Z,47.32
2018-11-02T13:31:59.738Z,47.49
2018-11-02T13:34:29.611Z,47.08
2018-11-02T13:36:59.371Z,48.50
2018-11-02T13:39:29.237Z,47.24
2018-11-02T13:41:59.013Z,47.81
2018-11-02T13:44:28.755Z,47.04
2018-11-02T13:46:58.521Z,47.77
2018-11-02T13:49:28.603Z,48.04
2018-11-02T13:51:58.423Z,48.41
2018-11-02T13:54:28.127Z,48.02
2018-11-02T13:56:58.038Z,47.42
2018-11-02T13:59:27.789Z,46.70
2018-11-02T14:01:57.633Z,47.60
2018-11-02T14:04:27.416Z,47.79
2018-11-02T14:06:57.361Z,47.44
2018-11-02T14:09:27.198Z,48.52
2018-11-02T14:11:56.912Z,48.00
2018-11-02T14:14:27.112Z,47.43
2018-11-02T14:16:57.222Z,48.00
2018-11-02T14:19:27.465Z,48.15
2018-11-02T14:21:57.314Z,47.85
2018-11-02T14:24:27.110Z,47.53
2018-11-02T14:26:56.974Z,48.50
2018-11-02T14:29:26.814Z,47.45
2018-11-02T14:31:56.598Z,47.93
2018-11-02T14:34:26.371Z,47.29
2018-11-02T14:36:56.148Z,47.39
2018-11-02T14:39:25.927Z,47.78
2018-11-02T14:41:55.742Z,47.53
2018-11-02T14:44:25.683Z,47.29
2018-11-02T14:46:55.859Z,47.51
2018-11-02T14:49:25.608Z,48.29
2018-11-02T14:51:55.554Z,48.70
2018-11-02T14:54:25.323Z,48.73
2018-11-02T14:56:55.113Z,48.59
2018-11-02T14:59:25.278Z,47.37
2018-11-02T15:01:55.102Z,47.52
2018-11-02T15:04:24.939Z,47.39
2018-11-02T15:06:54.853Z,48.60
2018-11-02T15:09:24.685Z,48.79
2018-11-02T15:11:54.344Z,48.00
2018-11-02T15:14:24.129Z,48.45
2018-11-02T15:16:53.908Z,47.63
2018-11-02T15:19:23.638Z,47.48
2018-11-02T15:21:53.287Z,47.81
2018-11-02T15:24:23.367Z,47.23
2018-11-02T15:26:52.991Z,47.69
2018-11-02T15:29:22.820Z,48.30
2018-11-02T15:31:52.620Z,47.40
2018-11-02T15:34:22.450Z,47.72
2018-11-02T15:36:52.188Z,47.83
2018-11-02T15:39:22.001Z,47.17
2018-11-02T15:41:51.740Z,48.45
2018-11-02T15:44:21.639Z,47.46
2018-11-02T15:46:51.398Z,47.85
2018-11-02T15:49:21.164Z,48.59
2018-11-02T15:51:50.872Z,48.13
2018-11-02T15:54:20.682Z,47.63
2018-11-02T15:56:50.566Z,47.48
2018-11-02T15:59:20.404Z,48.06
2018-11-02T16:01:50.419Z,48.41
2018-11-02T16:04:20.442Z,47.85
2018-11-02T16:06:50.135Z,48.49
2018-11-02T16:09:19.911Z,48.34
2018-11-02T16:11:49.707Z,48.80
2018-11-02T16:14:19.580Z,48.72
2018-11-02T16:16:49.334Z,47.77
2018-11-02T16:19:19.114Z,47.51
2018-11-02T16:21:48.888Z,48.40
2018-11-02T16:24:18.644Z,47.87
2018-11-02T16:26:48.463Z,48.30
2018-11-02T16:29:18.393Z,48.05
2018-11-02T16:31:48.127Z,48.00
2018-11-02T16:34:17.930Z,48.82
2018-11-02T16:36:48.068Z,48.00
2018-11-02T16:39:17.924Z,48.93
2018-11-02T16:41:47.892Z,49.01
2018-11-02T16:44:18.003Z,49.01
2018-11-02T16:46:48.091Z,49.10
2018-11-02T16:49:18.179Z,47.91
2018-11-02T16:51:48.465Z,48.71
2018-11-02T16:54:18.274Z,48.62
2018-11-02T16:56:48.070Z,48.92
2018-11-02T16:59:17.826Z,48.92
2018-11-02T17:01:47.691Z,49.21
2018-11-02T17:04:17.738Z,49.77
2018-11-02T17:06:47.791Z,48.73
2018-11-02T17:09:17.649Z,49.21
2018-11-02T17:11:47.411Z,48.43
2018-11-02T17:14:17.273Z,48.30
2018-11-02T17:16:47.016Z,48.65
2018-11-02T17:19:16.788Z,48.62
2018-11-02T17:21:46.574Z,48.19
2018-11-02T17:24:16.740Z,48.49
2018-11-02T17:26:46.487Z,48.16
2018-11-02T17:29:16.428Z,49.62
2018-11-02T17:31:46.264Z,48.12
2018-11-02T17:34:16.027Z,48.26
2018-11-02T17:36:45.587Z,48.40
2018-11-02T17:39:15.648Z,48.27
2018-11-02T17:41:45.266Z,48.22
2018-11-02T17:44:15.135Z,48.53
2018-11-02T17:46:44.962Z,48.85
2018-11-02T17:49:14.923Z,49.10
2018-11-02T17:51:44.735Z,48.71
2018-11-02T17:54:14.992Z,48.93
2018-11-02T17:56:44.882Z,49.32
2018-11-02T17:59:14.765Z,48.85
2018-11-02T18:01:44.519Z,49.20
2018-11-02T18:04:14.277Z,48.93
2018-11-02T18:06:44.067Z,48.67
2018-11-02T18:09:13.951Z,49.40
2018-11-02T18:11:43.872Z,49.93
2018-11-02T18:14:13.505Z,49.33
2018-11-02T18:16:43.354Z,48.94
2018-11-02T18:19:13.296Z,49.72
2018-11-02T18:21:43.074Z,49.56
2018-11-02T18:24:12.857Z,49.39
2018-11-02T18:26:42.698Z,49.48
2018-11-02T18:29:12.496Z,49.47
2018-11-02T18:31:42.244Z,49.42
2018-11-02T18:34:12.029Z,49.69
2018-11-02T18:36:42.688Z,49.81
2018-11-02T18:39:14.703Z,50.15
2018-11-02T18:41:45.367Z,50.54
2018-11-02T18:44:15.224Z,50.90
2018-11-02T18:46:44.866Z,49.92
2018-11-02T18:49:14.795Z,50.61
2018-11-02T18:51:44.488Z,49.99
2018-11-02T18:54:14.327Z,50.61
2018-11-02T18:56:43.971Z,50.59
2018-11-02T18:59:13.681Z,50.04
2018-11-02T19:01:43.576Z,49.48
2018-11-02T19:04:13.755Z,51.00
2018-11-02T19:06:43.652Z,50.08
2018-11-02T19:09:13.811Z,50.57
2018-11-02T19:11:44.191Z,51.16
2018-11-02T19:14:13.984Z,50.75
2018-11-02T19:16:44.123Z,51.29
2018-11-02T19:19:14.070Z,50.75
2018-11-02T19:21:44.715Z,51.35
2018-11-02T19:24:14.807Z,50.29
2018-11-02T19:26:45.039Z,50.67
2018-11-02T19:29:15.835Z,51.90
2018-11-02T19:31:46.272Z,51.21
2018-11-02T19:34:16.338Z,50.86
2018-11-02T19:36:46.490Z,51.15
2018-11-02T19:39:17.026Z,52.25
2018-11-02T19:41:47.623Z,52.24
2018-11-02T19:44:17.706Z,51.66
2018-11-02T19:46:47.675Z,52.40
2018-11-02T19:49:17.726Z,52.04
2018-11-02T19:51:48.541Z,51.70
2018-11-02T19:54:19.861Z,52.40
2018-11-02T19:56:49.926Z,51.44
2018-11-02T19:59:20.132Z,51.65
2018-11-02T20:01:50.066Z,52.07
2018-11-02T20:04:20.353Z,51.19
2018-11-02T20:06:50.268Z,50.86
2018-11-02T20:09:20.672Z,50.82
2018-11-02T20:11:51.083Z,50.59
2018-11-02T20:14:21.418Z,52.13
2018-11-02T20:16:51.582Z,51.80
2018-11-02T20:19:21.705Z,51.85
2018-11-02T20:21:51.884Z,51.60
2018-11-02T20:24:23.386Z,50.80
2018-11-02T20:26:54.804Z,51.82
2018-11-02T20:29:25.100Z,52.14
2018-11-02T20:31:55.549Z,52.21
2018-11-02T20:34:25.483Z,52.74
2018-11-02T20:36:55.402Z,53.00
2018-11-02T20:39:26.036Z,52.64
2018-11-02T20:41:56.031Z,53.08
2018-11-02T20:44:26.006Z,53.09
2018-11-02T20:46:56.127Z,52.69
2018-11-02T20:49:27.185Z,53.61
2018-11-02T20:51:57.484Z,53.15
2018-11-02T20:54:28.567Z,53.54
2018-11-02T20:56:59.269Z,52.98
2018-11-02T20:59:29.782Z,53.73
2018-11-02T21:02:00.127Z,53.06
2018-11-02T21:04:30.073Z,52.90
2018-11-02T21:07:00.403Z,53.29
2018-11-02T21:09:30.858Z,53.38
2018-11-02T21:12:00.497Z,53.18
2018-11-02T21:14:30.889Z,52.64
2018-11-02T21:17:00.721Z,52.68
2018-11-02T21:19:30.552Z,52.59
2018-11-02T21:22:00.407Z,52.54
2018-11-02T21:24:30.494Z,53.24
2018-11-02T21:27:00.564Z,53.80
2018-11-02T21:29:30.510Z,53.22
2018-11-02T21:32:00.978Z,53.04
2018-11-02T21:34:30.719Z,53.76
2018-11-02T21:37:00.967Z,53.81
2018-11-02T21:39:30.747Z,53.96
2018-11-02T21:42:00.895Z,52.49
2018-11-02T21:44:30.745Z,53.47
2018-11-02T21:47:00.533Z,53.46
2018-11-02T21:49:30.322Z,53.24
2018-11-02T21:52:01.034Z,53.27
2018-11-02T21:54:31.207Z,53.55
2018-11-02T21:57:01.274Z,52.58
2018-11-02T21:59:31.079Z,53.21
2018-11-02T22:02:00.894Z,53.27
2018-11-02T22:04:30.635Z,52.88
2018-11-02T22:07:00.467Z,53.67
2018-11-02T22:09:30.599Z,53.46
2018-11-02T22:12:00.374Z,53.44
2018-11-02T22:14:30.326Z,53.06
2018-11-02T22:17:00.337Z,54.30
2018-11-02T22:19:30.163Z,54.09
2018-11-02T22:21:59.999Z,54.26
2018-11-02T22:24:30.162Z,54.27
2018-11-02T22:27:00.704Z,53.75
2018-11-02T22:29:30.482Z,53.40
2018-11-02T22:32:00.266Z,53.78
2018-11-02T22:34:30.015Z,53.71
2018-11-02T22:36:59.790Z,54.06
2018-11-02T22:39:29.747Z,54.26
2018-11-02T22:41:59.870Z,53.23
2018-11-02T22:44:29.689Z,54.29
2018-11-02T22:46:59.986Z,53.45
2018-11-02T22:49:29.906Z,54.28
2018-11-02T22:51:59.895Z,53.39
2018-11-02T22:54:30.230Z,53.80
2018-11-02T22:57:00.480Z,54.71
2018-11-02T22:59:35.022Z,54.84
2018-11-02T23:02:07.295Z,54.78
2018-11-02T23:04:37.450Z,53.79
2018-11-02T23:07:07.325Z,54.21
2018-11-02T23:09:37.166Z,54.02
2018-11-02T23:12:07.326Z,54.13
2018-11-02T23:14:37.102Z,54.43
2018-11-02T23:17:07.227Z,54.36
2018-11-02T23:19:37.007Z,53.62
2018-11-02T23:22:07.836Z,54.35
2018-11-02T23:24:38.219Z,54.25
2018-11-02T23:27:08.058Z,54.21
2018-11-02T23:29:37.831Z,54.67
2018-11-02T23:32:07.654Z,54.27
2018-11-02T23:34:37.335Z,53.89
2018-11-02T23:37:07.386Z,53.39
2018-11-02T23:39:37.183Z,53.37
2018-11-02T23:42:07.326Z,54.58
2018-11-02T23:44:37.147Z,53.50
2018-11-02T23:47:06.930Z,53.75
2018-11-02T23:49:36.616Z,54.03
2018-11-02T23:52:06.582Z,54.50
2018-11-02T23:54:36.334Z,54.04
2018-11-02T23:57:06.224Z,54.13
2018-11-02T23:59:35.997Z,54.41
